Time;durP1;ratioP1;P1;durP2;ratioP2;P2;SDS_P1;SDS_P2;PMS_P1;PMS_P2;Temp;Humidity;BMP_temperature;BMP_pressure;BME280_temperature;BME280_humidity;BME280_pressure;Samples;Min_cycle;Max_cycle;Signal;HPM_P1;HPM_P2
2021/06/30 00:23:45;;;;;;;27.55;13.73;;;15.80;99.90;;;;;;5094788;28;20035;-70
2021/06/30 00:26:11;;;;;;;27.15;12.32;;;15.80;99.90;;;;;;5094720;28;20387;-70
2021/06/30 00:28:37;;;;;;;23.20;11.52;;;15.80;99.90;;;;;;5093673;28;20043;-71
2021/06/30 00:31:03;;;;;;;23.67;12.77;;;15.80;99.90;;;;;;5094464;28;20044;-70
2021/06/30 00:33:29;;;;;;;21.80;11.90;;;15.90;99.90;;;;;;5094309;28;20036;-70
2021/06/30 00:35:54;;;;;;;29.10;12.05;;;15.80;99.90;;;;;;5094415;28;20527;-70
2021/06/30 00:38:20;;;;;;;21.77;12.38;;;15.80;99.90;;;;;;5094130;28;20044;-70
2021/06/30 00:40:46;;;;;;;25.33;11.40;;;15.90;99.90;;;;;;5093442;28;20494;-70
2021/06/30 00:43:12;;;;;;;27.88;12.35;;;15.80;99.90;;;;;;5092668;28;20040;-70
2021/06/30 00:45:38;;;;;;;25.38;11.98;;;15.80;99.90;;;;;;5094210;28;20036;-71
2021/06/30 00:48:04;;;;;;;22.98;10.63;;;15.80;99.90;;;;;;5093711;28;20043;-71
2021/06/30 00:50:29;;;;;;;21.70;11.85;;;15.80;99.90;;;;;;5093407;28;20036;-70
2021/06/30 00:52:55;;;;;;;19.92;10.75;;;15.90;99.90;;;;;;5093801;28;20088;-70
2021/06/30 00:55:23;;;;;;;20.35;10.77;;;15.90;99.90;;;;;;5093768;28;20040;-70
2021/06/30 00:57:48;;;;;;;21.98;11.07;;;15.90;99.90;;;;;;5094067;28;20044;-71
2021/06/30 01:00:15;;;;;;;27.42;11.57;;;15.90;99.90;;;;;;5093215;28;20043;-70
2021/06/30 01:02:41;;;;;;;19.95;12.02;;;15.80;99.90;;;;;;5093524;28;20043;-70
2021/06/30 01:05:07;;;;;;;20.40;10.73;;;15.80;99.90;;;;;;5094101;28;20043;-70
2021/06/30 01:07:33;;;;;;;28.50;11.77;;;15.90;99.90;;;;;;5093942;28;20082;-71
2021/06/30 01:09:59;;;;;;;23.88;11.95;;;15.90;99.90;;;;;;5093399;28;20032;-71
2021/06/30 01:12:25;;;;;;;28.17;11.55;;;15.90;99.90;;;;;;5093421;28;20048;-71
2021/06/30 01:14:51;;;;;;;30.73;12.57;;;15.90;99.90;;;;;;5093915;28;20464;-70
2021/06/30 01:17:16;;;;;;;29.05;13.93;;;15.80;99.90;;;;;;5093526;28;20373;-70
2021/06/30 01:19:42;;;;;;;31.75;13.48;;;15.80;99.90;;;;;;5093245;28;20455;-70
2021/06/30 01:22:08;;;;;;;26.50;13.73;;;15.70;99.90;;;;;;5093319;28;20032;-70
2021/06/30 01:24:35;;;;;;;31.20;13.07;;;15.60;99.90;;;;;;5093501;28;20043;-70
2021/06/30 01:27:02;;;;;;;29.02;12.68;;;15.60;99.90;;;;;;5093865;28;20047;-70
2021/06/30 01:29:28;;;;;;;26.30;12.85;;;15.60;99.90;;;;;;5092986;28;20067;-70
2021/06/30 01:31:54;;;;;;;24.42;12.88;;;15.70;99.90;;;;;;5093124;28;20476;-70
2021/06/30 01:34:19;;;;;;;23.95;12.20;;;15.70;99.90;;;;;;5093526;28;20051;-71
2021/06/30 01:36:51;;;;;;;21.25;11.15;;;15.70;99.90;;;;;;5093855;28;20063;-70
2021/06/30 01:39:19;;;;;;;27.98;12.52;;;15.70;99.90;;;;;;5093089;28;20064;-70
2021/06/30 01:41:46;;;;;;;20.50;11.45;;;15.70;99.90;;;;;;5093667;28;20068;-71
2021/06/30 01:44:12;;;;;;;23.33;11.80;;;15.80;99.90;;;;;;5092026;28;20120;-70
2021/06/30 01:46:40;;;;;;;21.98;11.85;;;15.70;99.90;;;;;;5093894;28;20516;-70
2021/06/30 01:49:06;;;;;;;24.67;12.85;;;15.70;99.90;;;;;;5093233;28;20064;-70
2021/06/30 01:51:34;;;;;;;25.50;12.07;;;15.60;99.90;;;;;;5093369;28;20036;-70
2021/06/30 01:54:03;;;;;;;24.20;12.45;;;15.60;99.90;;;;;;5093433;28;20125;-70
2021/06/30 01:56:30;;;;;;;23.27;11.63;;;15.70;99.90;;;;;;5093092;28;20040;-70
2021/06/30 01:59:17;;;;;;;24.90;13.45;;;15.60;99.90;;;;;;5092909;28;20036;-70
2021/06/30 02:01:43;;;;;;;20.15;12.98;;;15.60;99.90;;;;;;5093200;28;20070;-70
2021/06/30 02:04:09;;;;;;;18.27;11.55;;;15.50;99.90;;;;;;5092958;28;20078;-70
2021/06/30 02:06:42;;;;;;;22.88;11.68;;;15.50;99.90;;;;;;5093515;28;20042;-70
2021/06/30 02:09:11;;;;;;;25.23;12.07;;;15.50;99.90;;;;;;5093328;28;20044;-70
2021/06/30 02:11:37;;;;;;;20.45;12.82;;;15.40;99.90;;;;;;5093028;28;20047;-70
2021/06/30 02:14:04;;;;;;;24.80;13.30;;;15.40;99.90;;;;;;5093491;28;20033;-70
2021/06/30 02:16:30;;;;;;;27.15;13.85;;;15.20;99.90;;;;;;5093220;28;20082;-70
2021/06/30 02:18:56;;;;;;;25.00;12.93;;;15.30;99.90;;;;;;5091592;28;20064;-70
2021/06/30 02:21:24;;;;;;;21.17;12.43;;;15.20;99.90;;;;;;5095967;28;20071;-71
2021/06/30 02:23:50;;;;;;;28.50;13.57;;;15.20;99.90;;;;;;5097040;28;20117;-70
2021/06/30 02:26:16;;;;;;;31.58;13.15;;;15.10;99.90;;;;;;5096941;28;20036;-70
2021/06/30 02:28:41;;;;;;;24.70;13.38;;;15.10;99.90;;;;;;5096250;28;20054;-70
2021/06/30 02:31:07;;;;;;;26.05;13.02;;;15.10;99.90;;;;;;5096654;28;20453;-70
2021/06/30 02:33:43;;;;;;;29.13;13.10;;;15.10;99.90;;;;;;5096773;28;20043;-70
2021/06/30 02:36:09;;;;;;;27.13;14.27;;;15.10;99.90;;;;;;5096857;28;20460;-70
2021/06/30 02:38:35;;;;;;;25.55;14.98;;;15.00;99.90;;;;;;5096517;28;20047;-70
2021/06/30 02:41:00;;;;;;;32.10;14.82;;;15.10;99.90;;;;;;5096323;28;20048;-70
2021/06/30 02:43:26;;;;;;;35.97;14.88;;;15.00;99.90;;;;;;5096601;28;20094;-70
2021/06/30 02:45:52;;;;;;;30.02;13.48;;;15.00;99.90;;;;;;5096071;28;20048;-70
2021/06/30 02:48:17;;;;;;;27.80;13.43;;;14.90;99.90;;;;;;5096177;28;20616;-70
2021/06/30 02:50:43;;;;;;;28.30;14.27;;;14.90;99.90;;;;;;5096198;28;20032;-70
2021/06/30 02:53:09;;;;;;;22.58;13.15;;;14.90;99.90;;;;;;5095779;28;20085;-70
2021/06/30 02:55:35;;;;;;;27.10;13.30;;;14.90;99.90;;;;;;5095856;28;20516;-70
2021/06/30 02:58:00;;;;;;;27.77;12.25;;;14.80;99.90;;;;;;5095824;28;20514;-70
2021/06/30 03:00:26;;;;;;;29.40;13.70;;;14.80;99.90;;;;;;5095773;28;20032;-70
2021/06/30 03:02:52;;;;;;;30.50;13.88;;;14.80;99.90;;;;;;5096221;28;20036;-70
2021/06/30 03:05:18;;;;;;;25.73;13.85;;;14.80;99.90;;;;;;5094591;28;20040;-70
2021/06/30 03:07:44;;;;;;;32.28;14.55;;;14.80;99.90;;;;;;5095614;28;20165;-70
2021/06/30 03:10:12;;;;;;;31.20;14.85;;;14.80;99.90;;;;;;5095522;28;20040;-70
2021/06/30 03:12:39;;;;;;;32.15;14.80;;;14.70;99.90;;;;;;5095763;28;20063;-70
2021/06/30 03:15:24;;;;;;;22.63;14.00;;;14.70;99.90;;;;;;5094879;28;20047;-70
2021/06/30 03:17:50;;;;;;;23.17;12.98;;;14.80;99.90;;;;;;5095564;28;20036;-70
2021/06/30 03:20:16;;;;;;;27.60;14.57;;;14.80;99.90;;;;;;5095155;28;20036;-70
2021/06/30 03:22:42;;;;;;;28.75;14.52;;;14.90;99.90;;;;;;5095402;28;20047;-70
2021/06/30 03:25:11;;;;;;;27.67;14.48;;;14.80;99.90;;;;;;5095854;28;20115;-70
2021/06/30 03:27:37;;;;;;;27.50;13.68;;;14.80;99.90;;;;;;5095515;28;20040;-70
2021/06/30 03:30:05;;;;;;;28.05;14.88;;;14.80;99.90;;;;;;5094819;28;20062;-70
2021/06/30 03:32:32;;;;;;;32.67;16.55;;;14.80;99.90;;;;;;5095040;28;20040;-70
2021/06/30 03:34:58;;;;;;;27.40;14.90;;;14.80;99.90;;;;;;5095227;28;20396;-70
2021/06/30 03:37:23;;;;;;;27.15;16.08;;;14.80;99.90;;;;;;5095581;28;20465;-70
2021/06/30 03:39:49;;;;;;;26.08;15.73;;;14.70;99.90;;;;;;5094864;28;20032;-70
2021/06/30 03:42:16;;;;;;;27.05;16.60;;;14.70;99.90;;;;;;5095611;28;20032;-70
2021/06/30 03:44:42;;;;;;;27.63;15.57;;;14.70;99.90;;;;;;5095074;28;20101;-70
2021/06/30 03:47:07;;;;;;;26.40;15.00;;;14.70;99.90;;;;;;5094875;28;20488;-70
2021/06/30 03:49:33;;;;;;;28.10;14.73;;;14.70;99.90;;;;;;5094431;28;20032;-70
2021/06/30 03:51:59;;;;;;;23.65;14.32;;;14.80;99.90;;;;;;5094852;28;20036;-70
2021/06/30 03:54:25;;;;;;;29.40;14.38;;;14.70;99.90;;;;;;5094698;28;20032;-70
2021/06/30 03:56:53;;;;;;;28.00;14.15;;;14.70;99.90;;;;;;5094806;28;20044;-70
2021/06/30 03:59:20;;;;;;;29.77;14.68;;;14.70;99.90;;;;;;5094225;28;20036;-70
2021/06/30 04:01:46;;;;;;;21.60;12.95;;;14.80;99.90;;;;;;5095190;28;20044;-70
2021/06/30 04:04:13;;;;;;;19.83;12.65;;;14.80;99.90;;;;;;5095171;28;20036;-70
2021/06/30 04:06:40;;;;;;;20.35;12.38;;;14.80;99.90;;;;;;5094438;28;20120;-70
2021/06/30 04:09:05;;;;;;;20.02;12.38;;;14.90;99.90;;;;;;5094177;28;20036;-70
2021/06/30 04:11:32;;;;;;;31.52;13.50;;;14.90;99.90;;;;;;5094211;28;20043;-70
2021/06/30 04:13:59;;;;;;;20.95;12.43;;;14.80;99.90;;;;;;5094407;28;20041;-70
2021/06/30 04:16:24;;;;;;;23.40;12.07;;;14.80;99.90;;;;;;5094916;28;20475;-71
2021/06/30 04:18:50;;;;;;;29.65;14.15;;;14.90;99.90;;;;;;5094508;28;20078;-71
2021/06/30 04:21:16;;;;;;;23.48;13.60;;;14.90;99.90;;;;;;5094747;28;20032;-71
2021/06/30 04:23:42;;;;;;;18.35;12.40;;;14.90;99.90;;;;;;5094600;28;20101;-68
2021/06/30 04:26:08;;;;;;;20.83;12.30;;;14.90;99.90;;;;;;5094686;28;20040;-70
2021/06/30 04:28:33;;;;;;;22.83;11.68;;;14.90;99.90;;;;;;5093958;28;20106;-70
2021/06/30 04:30:59;;;;;;;25.75;12.45;;;15.00;99.90;;;;;;5094114;28;20101;-71
2021/06/30 04:33:25;;;;;;;22.70;12.43;;;14.90;99.90;;;;;;5093992;28;20040;-70
2021/06/30 04:35:51;;;;;;;27.20;12.80;;;14.90;99.90;;;;;;5094304;28;20040;-70
2021/06/30 04:38:17;;;;;;;26.63;12.55;;;14.90;99.90;;;;;;5094273;28;20465;-70
2021/06/30 04:40:43;;;;;;;23.60;12.27;;;15.00;99.90;;;;;;5093775;28;20109;-70
2021/06/30 04:43:09;;;;;;;22.88;12.73;;;15.00;99.90;;;;;;5092814;28;20047;-70
2021/06/30 04:45:35;;;;;;;21.35;10.88;;;15.00;99.90;;;;;;5093633;28;20032;-70
2021/06/30 04:48:00;;;;;;;24.00;12.32;;;15.00;99.90;;;;;;5093855;28;20054;-71
2021/06/30 04:50:26;;;;;;;24.98;12.50;;;14.90;99.90;;;;;;5093581;28;20376;-71
2021/06/30 04:52:52;;;;;;;24.00;13.00;;;15.00;99.90;;;;;;5093925;28;20384;-70
2021/06/30 04:55:17;;;;;;;22.08;11.65;;;15.00;99.90;;;;;;5092527;28;20040;-70
2021/06/30 04:57:43;;;;;;;21.90;11.93;;;15.00;99.90;;;;;;5093807;28;20158;-71
2021/06/30 05:00:10;;;;;;;19.55;11.73;;;15.00;99.90;;;;;;5093216;28;20169;-70
2021/06/30 05:02:35;;;;;;;26.88;11.52;;;15.00;99.90;;;;;;5092878;28;20047;-70
2021/06/30 05:05:02;;;;;;;18.73;11.18;;;15.00;99.90;;;;;;5093739;28;20032;-70
2021/06/30 05:07:28;;;;;;;26.25;11.30;;;15.00;99.90;;;;;;5093901;28;20464;-70
2021/06/30 05:09:54;;;;;;;25.08;11.43;;;15.00;99.90;;;;;;5093571;28;20093;-70
2021/06/30 05:12:19;;;;;;;18.70;12.32;;;15.00;99.90;;;;;;5093414;28;20119;-70
2021/06/30 05:14:45;;;;;;;19.73;11.27;;;15.00;99.90;;;;;;5093997;28;20043;-70
2021/06/30 05:17:11;;;;;;;23.00;10.75;;;15.00;99.90;;;;;;5093444;28;20068;-70
2021/06/30 05:19:37;;;;;;;19.83;11.10;;;15.00;99.90;;;;;;5092974;28;20488;-70
2021/06/30 05:22:04;;;;;;;18.55;10.38;;;15.00;99.90;;;;;;5093369;28;20032;-70
2021/06/30 05:24:29;;;;;;;21.92;11.18;;;15.00;99.90;;;;;;5093423;28;20039;-70
2021/06/30 05:26:55;;;;;;;23.73;10.88;;;15.10;99.90;;;;;;5093949;28;20032;-70
2021/06/30 05:29:21;;;;;;;20.33;11.38;;;15.10;99.90;;;;;;5093029;28;20115;-71
2021/06/30 05:31:47;;;;;;;17.85;10.48;;;15.10;99.90;;;;;;5093320;28;20036;-70
2021/06/30 05:34:13;;;;;;;23.05;11.88;;;15.10;99.90;;;;;;5092994;28;20491;-71
2021/06/30 05:36:40;;;;;;;20.75;10.88;;;15.10;99.90;;;;;;5093478;28;20040;-70
2021/06/30 05:39:06;;;;;;;20.08;11.38;;;15.20;99.90;;;;;;5093182;28;20089;-70
2021/06/30 05:41:32;;;;;;;29.63;12.07;;;15.20;99.90;;;;;;5093771;28;20044;-70
2021/06/30 05:43:57;;;;;;;18.67;10.68;;;15.10;99.90;;;;;;5093122;28;20043;-71
2021/06/30 05:46:23;;;;;;;23.35;10.70;;;15.10;99.90;;;;;;5093070;28;20038;-71
2021/06/30 05:48:48;;;;;;;19.08;11.95;;;15.20;99.90;;;;;;5093061;28;20036;-70
2021/06/30 05:51:14;;;;;;;25.95;12.40;;;15.20;99.90;;;;;;5093011;28;20032;-70
2021/06/30 05:53:40;;;;;;;21.80;12.25;;;15.20;99.90;;;;;;5093335;28;20048;-71
2021/06/30 05:56:07;;;;;;;21.33;12.25;;;15.30;99.90;;;;;;5096067;28;20115;-70
2021/06/30 05:58:34;;;;;;;20.65;11.10;;;15.20;99.90;;;;;;5096637;28;20036;-71
2021/06/30 06:01:00;;;;;;;21.13;12.00;;;15.30;99.90;;;;;;5095737;28;20036;-70
2021/06/30 06:03:26;;;;;;;19.88;12.18;;;15.30;99.90;;;;;;5097201;28;20117;-70
2021/06/30 06:05:52;;;;;;;18.80;12.52;;;15.20;99.90;;;;;;5097179;28;20064;-71
2021/06/30 06:08:18;;;;;;;23.83;12.32;;;15.40;99.90;;;;;;5097401;28;20036;-70
2021/06/30 06:10:43;;;;;;;24.90;12.63;;;15.30;99.90;;;;;;5096244;28;20036;-70
2021/06/30 06:13:09;;;;;;;20.08;13.25;;;15.40;99.90;;;;;;5096600;28;20068;-71
2021/06/30 06:15:35;;;;;;;24.92;12.85;;;15.50;99.90;;;;;;5096645;28;20036;-71
2021/06/30 06:18:01;;;;;;;22.80;12.35;;;15.50;99.90;;;;;;5096839;28;20085;-71
2021/06/30 06:20:27;;;;;;;20.95;13.18;;;15.50;99.90;;;;;;5096210;28;20085;-71
2021/06/30 06:22:52;;;;;;;25.70;13.45;;;15.50;99.90;;;;;;5096919;28;20434;-71
2021/06/30 06:25:18;;;;;;;26.33;12.98;;;15.50;99.90;;;;;;5097044;28;20056;-71
2021/06/30 06:27:44;;;;;;;23.98;12.85;;;15.50;99.90;;;;;;5095721;28;20132;-71
2021/06/30 06:30:10;;;;;;;17.27;11.40;;;15.50;99.90;;;;;;5096019;28;20089;-71
2021/06/30 06:32:36;;;;;;;25.55;11.95;;;15.50;99.90;;;;;;5096474;28;20043;-70
2021/06/30 06:35:05;;;;;;;23.38;11.82;;;15.50;99.90;;;;;;5096492;28;20040;-71
2021/06/30 06:37:31;;;;;;;21.38;12.52;;;15.50;99.90;;;;;;5096649;28;20044;-69
2021/06/30 06:39:57;;;;;;;20.35;11.75;;;15.60;99.90;;;;;;5095714;28;20043;-69
2021/06/30 06:42:23;;;;;;;17.75;11.13;;;15.60;99.90;;;;;;5096684;28;20090;-69
2021/06/30 06:44:50;;;;;;;22.73;11.57;;;15.60;99.90;;;;;;5096151;28;20036;-69
2021/06/30 06:47:16;;;;;;;17.05;9.90;;;15.60;99.90;;;;;;5095980;28;20032;-69
2021/06/30 06:49:42;;;;;;;19.58;11.35;;;15.70;99.90;;;;;;5095737;28;20036;-69
2021/06/30 06:52:07;;;;;;;15.68;10.35;;;15.70;99.90;;;;;;5095618;28;20078;-69
2021/06/30 06:54:33;;;;;;;19.20;10.60;;;15.70;99.90;;;;;;5095940;28;20064;-69
2021/06/30 06:56:59;;;;;;;17.63;10.80;;;15.60;99.90;;;;;;5095962;28;20476;-69
2021/06/30 06:59:25;;;;;;;22.55;10.73;;;15.70;99.90;;;;;;5095525;28;20036;-69
2021/06/30 07:01:50;;;;;;;23.67;11.63;;;15.60;99.90;;;;;;5095930;28;20047;-70
2021/06/30 07:04:16;;;;;;;15.52;9.65;;;15.60;99.90;;;;;;5095621;28;20122;-69
2021/06/30 07:06:42;;;;;;;18.42;10.07;;;15.70;99.90;;;;;;5095247;28;20166;-70
2021/06/30 07:09:07;;;;;;;19.17;10.68;;;15.60;99.90;;;;;;5095326;28;20043;-70
2021/06/30 07:11:33;;;;;;;27.55;10.85;;;15.60;99.90;;;;;;5095396;28;20036;-70
2021/06/30 07:13:59;;;;;;;20.30;10.75;;;15.60;99.90;;;;;;5095606;28;20115;-70
2021/06/30 07:16:25;;;;;;;22.58;9.73;;;15.70;99.90;;;;;;5095420;28;20036;-70
2021/06/30 07:18:51;;;;;;;21.38;10.20;;;15.50;99.90;;;;;;5095390;28;20074;-69
2021/06/30 07:21:16;;;;;;;18.50;10.43;;;15.50;99.90;;;;;;5095832;28;20036;-70
2021/06/30 07:23:42;;;;;;;20.05;10.35;;;15.50;99.90;;;;;;5095973;28;20040;-70
2021/06/30 07:26:11;;;;;;;20.27;9.38;;;15.50;99.90;;;;;;5095950;28;20419;-70
2021/06/30 07:28:38;;;;;;;16.98;9.63;;;15.50;99.90;;;;;;5094933;28;20035;-70
2021/06/30 07:31:04;;;;;;;16.45;9.70;;;15.50;99.90;;;;;;5095689;28;20086;-69
2021/06/30 07:33:30;;;;;;;19.05;10.48;;;15.50;99.90;;;;;;5095018;28;20036;-70
2021/06/30 07:35:56;;;;;;;20.50;10.75;;;15.50;99.90;;;;;;5095088;28;20044;-70
2021/06/30 07:38:21;;;;;;;19.75;10.07;;;15.40;99.90;;;;;;5094999;28;20048;-70
2021/06/30 07:40:47;;;;;;;17.67;10.80;;;15.40;99.90;;;;;;5095354;28;20042;-70
2021/06/30 07:43:13;;;;;;;20.35;10.63;;;15.50;99.90;;;;;;5095155;28;20043;-70
2021/06/30 07:45:38;;;;;;;20.23;10.30;;;15.40;99.90;;;;;;5095426;28;20054;-70
2021/06/30 07:48:05;;;;;;;25.13;10.52;;;15.50;99.90;;;;;;5094952;28;20040;-70
2021/06/30 07:50:30;;;;;;;19.42;9.30;;;15.30;99.90;;;;;;5095879;28;20058;-70
2021/06/30 07:52:58;;;;;;;18.15;9.50;;;15.30;99.90;;;;;;5115107;28;20474;-70
2021/06/30 07:55:23;;;;;;;17.23;8.52;;;15.30;99.90;;;;;;5115683;28;20047;-70
2021/06/30 07:57:49;;;;;;;25.63;10.00;;;15.20;99.90;;;;;;5115040;28;20395;-70
2021/06/30 08:00:15;;;;;;;20.15;9.95;;;15.20;99.90;;;;;;5114830;28;20122;-70
2021/06/30 08:02:41;;;;;;;13.48;9.48;;;15.20;99.90;;;;;;5115296;28;20050;-70
2021/06/30 08:05:09;;;;;;;21.35;9.63;;;15.20;99.90;;;;;;5115407;28;20035;-70
2021/06/30 08:07:39;;;;;;;20.08;10.18;;;15.30;99.90;;;;;;5114887;28;20040;-70
2021/06/30 08:10:08;;;;;;;21.73;11.85;;;15.30;99.90;;;;;;5114475;27;20092;-70
2021/06/30 08:12:34;;;;;;;17.02;9.85;;;15.40;99.90;;;;;;5114757;28;20121;-70
2021/06/30 08:15:00;;;;;;;20.27;10.88;;;15.30;99.90;;;;;;5115102;28;20039;-70
2021/06/30 08:17:27;;;;;;;16.67;10.55;;;15.40;99.90;;;;;;5114031;28;20036;-69
2021/06/30 08:19:53;;;;;;;18.85;10.13;;;15.40;99.90;;;;;;5112729;28;20484;-69
2021/06/30 08:22:22;;;;;;;13.40;9.65;;;15.30;99.90;;;;;;5114293;28;20403;-69
2021/06/30 08:24:48;;;;;;;21.05;11.32;;;15.30;99.90;;;;;;5094134;28;20547;-70
2021/06/30 08:27:14;;;;;;;19.20;10.52;;;15.30;99.90;;;;;;5094664;28;20150;-70
2021/06/30 08:29:42;;;;;;;18.67;10.98;;;15.40;99.90;;;;;;5094243;28;20123;-70
2021/06/30 08:32:08;;;;;;;19.70;11.50;;;15.30;99.90;;;;;;5093974;28;20443;-68
2021/06/30 08:34:34;;;;;;;18.60;10.75;;;15.30;99.90;;;;;;5094280;28;20054;-68
2021/06/30 08:37:04;;;;;;;20.33;11.63;;;15.40;99.90;;;;;;5094614;28;20043;-69
2021/06/30 08:39:31;;;;;;;17.92;10.98;;;15.40;99.90;;;;;;5092873;28;20051;-69
2021/06/30 08:41:57;;;;;;;15.50;10.27;;;15.50;99.90;;;;;;5091800;28;20442;-69
2021/06/30 08:44:23;;;;;;;19.30;10.30;;;15.40;99.90;;;;;;5091820;28;20044;-69
2021/06/30 08:46:50;;;;;;;22.88;11.13;;;15.40;99.90;;;;;;5092016;28;20040;-69
2021/06/30 08:49:19;;;;;;;18.48;10.27;;;15.30;99.90;;;;;;5091755;28;20075;-69
2021/06/30 08:51:45;;;;;;;13.52;9.75;;;15.30;99.90;;;;;;5091212;28;20377;-69
2021/06/30 08:54:13;;;;;;;19.35;10.45;;;15.40;99.90;;;;;;5093750;28;20040;-69
2021/06/30 08:56:40;;;;;;;18.15;11.13;;;15.50;99.90;;;;;;5093754;28;20048;-69
2021/06/30 08:59:06;;;;;;;18.33;9.98;;;15.50;99.90;;;;;;5093290;28;20404;-69
2021/06/30 09:01:33;;;;;;;15.02;9.38;;;15.50;99.90;;;;;;5093435;28;20040;-69
2021/06/30 09:04:00;;;;;;;12.48;9.25;;;15.40;99.90;;;;;;5093455;28;20040;-69
2021/06/30 09:06:27;;;;;;;13.52;9.02;;;15.50;99.90;;;;;;5093825;28;20052;-69
2021/06/30 09:08:54;;;;;;;15.07;9.50;;;15.50;99.90;;;;;;5093290;28;20162;-69
2021/06/30 09:11:22;;;;;;;13.38;9.38;;;15.60;99.90;;;;;;5093492;28;20047;-69
2021/06/30 09:13:49;;;;;;;16.10;9.68;;;15.60;99.90;;;;;;5093502;28;20036;-69
2021/06/30 09:16:15;;;;;;;18.38;9.98;;;15.50;99.90;;;;;;5094042;28;20048;-69
2021/06/30 09:18:42;;;;;;;15.27;9.85;;;15.60;99.90;;;;;;5092865;28;20043;-69
2021/06/30 09:21:21;;;;;;;16.35;10.73;;;15.60;99.90;;;;;;5093256;28;20555;-69
2021/06/30 09:24:08;;;;;;;21.20;12.10;;;15.70;99.90;;;;;;5093707;28;20451;-69
2021/06/30 09:26:46;;;;;;;22.13;11.75;;;15.70;99.90;;;;;;5093288;28;20369;-70
2021/06/30 09:29:12;;;;;;;21.73;11.35;;;15.70;99.90;;;;;;5094800;28;20387;-69
2021/06/30 09:31:42;;;;;;;19.48;10.98;;;15.70;99.90;;;;;;5107056;28;20032;-69
2021/06/30 09:34:08;;;;;;;18.40;10.65;;;15.70;99.90;;;;;;5118122;28;20459;-69
2021/06/30 09:36:59;;;;;;;15.07;9.60;;;15.70;99.90;;;;;;5118380;28;20047;-69
2021/06/30 09:39:26;;;;;;;17.02;10.00;;;15.70;99.90;;;;;;5117592;28;20040;-69
2021/06/30 09:42:07;;;;;;;16.27;9.90;;;15.70;99.90;;;;;;5117708;28;20049;-69
2021/06/30 09:44:34;;;;;;;16.35;9.80;;;15.60;99.90;;;;;;5118027;28;20089;-69
2021/06/30 09:47:00;;;;;;;14.05;10.40;;;15.60;99.90;;;;;;5109110;28;20043;-69
2021/06/30 09:49:27;;;;;;;15.85;10.00;;;15.60;99.90;;;;;;5095715;28;20135;-69
2021/06/30 09:52:06;;;;;;;17.85;10.70;;;15.60;99.90;;;;;;5097874;28;20040;-69
2021/06/30 09:54:33;;;;;;;17.77;10.95;;;15.60;99.90;;;;;;5097070;28;20047;-69
2021/06/30 09:57:02;;;;;;;17.42;11.07;;;15.60;99.90;;;;;;5096991;28;20086;-69
2021/06/30 09:59:33;;;;;;;16.02;11.15;;;15.60;99.90;;;;;;5095624;28;20062;-69
2021/06/30 10:02:00;;;;;;;22.48;11.02;;;15.60;99.90;;;;;;5096989;28;20443;-69
2021/06/30 10:04:30;;;;;;;24.45;10.82;;;15.60;99.90;;;;;;5097211;28;20093;-69
2021/06/30 10:06:59;;;;;;;15.13;10.43;;;15.60;99.90;;;;;;5096202;28;20040;-69
2021/06/30 10:09:25;;;;;;;16.80;10.55;;;15.50;99.90;;;;;;5110469;28;20046;-69
2021/06/30 10:11:57;;;;;;;16.33;10.93;;;15.40;99.90;;;;;;5117327;28;20039;-69
2021/06/30 10:14:25;;;;;;;16.98;9.60;;;15.50;99.90;;;;;;5117645;27;20039;-69
2021/06/30 10:16:50;;;;;;;18.67;9.98;;;15.20;99.90;;;;;;5117333;28;20096;-69
2021/06/30 10:19:17;;;;;;;14.63;9.35;;;15.30;99.90;;;;;;5116737;28;20444;-69
2021/06/30 10:21:43;;;;;;;12.40;9.70;;;15.20;99.90;;;;;;5116019;28;20031;-69
2021/06/30 10:24:10;;;;;;;12.60;8.98;;;15.20;99.90;;;;;;5116265;28;20391;-69
2021/06/30 10:26:35;;;;;;;16.08;8.88;;;15.10;99.90;;;;;;5116835;28;20043;-68
2021/06/30 10:29:01;;;;;;;16.95;9.15;;;15.10;99.90;;;;;;5116501;28;20437;-69
2021/06/30 10:31:35;;;;;;;19.65;9.73;;;15.30;99.90;;;;;;5117418;28;20036;-69
2021/06/30 10:34:06;;;;;;;19.25;9.50;;;15.20;99.90;;;;;;5116691;28;20066;-69
2021/06/30 10:36:45;;;;;;;15.45;9.27;;;15.20;99.90;;;;;;5116773;28;20097;-69
2021/06/30 10:39:12;;;;;;;13.77;8.95;;;15.30;99.90;;;;;;5115376;28;20040;-69
2021/06/30 10:41:43;;;;;;;16.58;8.93;;;15.30;99.90;;;;;;5115743;28;20040;-69
2021/06/30 10:44:17;;;;;;;14.57;9.35;;;15.30;99.90;;;;;;5117196;28;20036;-69
2021/06/30 10:46:43;;;;;;;15.43;9.40;;;15.30;99.90;;;;;;5116508;28;20040;-69
2021/06/30 10:49:16;;;;;;;13.43;9.48;;;15.30;99.90;;;;;;5116119;28;20031;-69
2021/06/30 10:51:43;;;;;;;15.57;9.03;;;15.40;99.90;;;;;;5117015;28;20092;-69
2021/06/30 10:54:36;;;;;;;17.40;9.15;;;15.30;99.90;;;;;;5116905;28;20048;-69
2021/06/30 10:57:20;;;;;;;11.57;9.03;;;15.40;99.90;;;;;;5116470;28;20114;-69
2021/06/30 11:00:05;;;;;;;16.20;9.30;;;15.40;99.90;;;;;;5115891;28;20286;-69
2021/06/30 11:02:34;;;;;;;14.35;9.10;;;15.50;99.90;;;;;;5115226;28;20077;-69
2021/06/30 11:05:32;;;;;;;15.30;8.75;;;15.30;99.90;;;;;;5116676;28;20467;-69
2021/06/30 11:07:58;;;;;;;13.93;9.02;;;15.50;99.90;;;;;;5116460;28;20473;-69
2021/06/30 11:10:23;;;;;;;14.68;9.45;;;15.50;99.90;;;;;;5115870;28;20039;-69
2021/06/30 11:12:50;;;;;;;13.75;9.38;;;15.40;99.90;;;;;;5115922;28;20032;-69
2021/06/30 11:15:37;;;;;;;14.02;9.73;;;15.30;99.90;;;;;;5115542;28;20040;-69
2021/06/30 11:18:13;;;;;;;13.88;8.07;;;15.40;99.90;;;;;;5115808;28;20038;-69
2021/06/30 11:20:48;;;;;;;17.50;9.35;;;15.20;99.90;;;;;;5115273;28;20490;-69
2021/06/30 11:23:25;;;;;;;15.15;9.20;;;15.20;99.90;;;;;;5116181;28;20039;-69
2021/06/30 11:25:54;;;;;;;14.73;9.02;;;15.10;99.90;;;;;;5115959;28;20047;-69
2021/06/30 11:28:30;;;;;;;18.75;8.82;;;15.10;99.90;;;;;;5114326;28;20035;-69
2021/06/30 11:30:57;;;;;;;17.42;8.98;;;15.10;99.90;;;;;;5115902;28;20043;-69
2021/06/30 11:33:24;;;;;;;17.38;9.30;;;15.20;99.90;;;;;;5115530;28;20035;-70
2021/06/30 11:35:50;;;;;;;17.33;9.73;;;15.30;99.90;;;;;;5116216;28;20036;-70
2021/06/30 11:38:17;;;;;;;13.80;10.10;;;15.20;99.90;;;;;;5115570;28;20048;-69
2021/06/30 11:41:08;;;;;;;18.02;9.63;;;15.20;99.90;;;;;;5114888;28;20491;-69
2021/06/30 11:43:42;;;;;;;16.02;9.32;;;15.30;99.90;;;;;;5115441;28;20499;-70
2021/06/30 11:46:09;;;;;;;15.27;8.70;;;15.20;99.90;;;;;;5115547;28;20035;-70
2021/06/30 11:48:37;;;;;;;17.50;9.18;;;15.00;99.90;;;;;;5115696;28;20101;-70
2021/06/30 11:51:10;;;;;;;14.93;8.45;;;14.90;99.90;;;;;;5115559;28;20466;-69
2021/06/30 11:53:46;;;;;;;14.52;8.32;;;14.90;99.90;;;;;;5113988;28;20040;-70
2021/06/30 11:56:35;;;;;;;14.77;6.85;;;14.80;99.90;;;;;;5115609;28;20071;-71
2021/06/30 11:59:04;;;;;;;10.43;7.57;;;14.90;99.90;;;;;;5114133;28;20114;-70
2021/06/30 12:01:32;;;;;;;13.43;7.55;;;14.90;99.90;;;;;;5114847;28;20039;-70
2021/06/30 12:04:09;;;;;;;10.25;7.60;;;14.90;99.90;;;;;;5114849;28;20063;-70
2021/06/30 12:06:35;;;;;;;12.02;7.28;;;15.00;99.90;;;;;;5114968;28;20114;-70
2021/06/30 12:09:24;;;;;;;10.65;7.03;;;14.90;99.90;;;;;;5114417;28;20063;-70
2021/06/30 12:11:56;;;;;;;14.10;7.97;;;14.80;99.90;;;;;;5114783;28;20483;-70
2021/06/30 12:14:25;;;;;;;11.02;6.93;;;14.90;99.90;;;;;;5115294;28;20043;-70
2021/06/30 12:16:54;;;;;;;14.65;7.25;;;14.80;99.90;;;;;;5115046;28;20535;-68
2021/06/30 12:19:30;;;;;;;13.02;7.03;;;14.70;99.90;;;;;;5113196;28;20040;-70
2021/06/30 12:21:57;;;;;;;10.13;5.93;;;14.90;99.90;;;;;;5113977;28;20456;-70
2021/06/30 12:24:24;;;;;;;9.52;6.22;;;14.60;99.90;;;;;;5114569;28;20483;-70
2021/06/30 12:27:07;;;;;;;11.18;7.13;;;14.70;99.90;;;;;;5114755;28;20353;-70
2021/06/30 12:29:34;;;;;;;;;;;14.70;99.90;;;;;;5114709;28;20090;-70
2021/06/30 12:32:02;;;;;;;11.60;6.05;;;14.70;99.90;;;;;;5114619;28;20049;-70
2021/06/30 12:34:28;;;;;;;15.02;7.20;;;14.70;99.90;;;;;;5114974;28;20035;-70
2021/06/30 12:36:54;;;;;;;10.68;7.15;;;14.70;99.90;;;;;;5114350;28;20063;-70
2021/06/30 12:39:29;;;;;;;9.93;6.70;;;14.80;99.90;;;;;;5112974;28;20044;-69
2021/06/30 12:42:05;;;;;;;9.98;7.13;;;14.70;99.90;;;;;;5114691;28;20032;-69
2021/06/30 12:44:57;;;;;;;8.82;6.38;;;14.70;99.90;;;;;;5113865;28;20054;-69
2021/06/30 12:47:25;;;;;;;11.05;7.40;;;14.70;99.90;;;;;;5114448;28;20071;-69
2021/06/30 12:49:58;;;;;;;13.05;6.95;;;14.70;99.90;;;;;;5113841;28;20118;-69
2021/06/30 12:52:30;;;;;;;9.77;7.13;;;14.80;99.90;;;;;;5114271;28;20036;-69
2021/06/30 12:55:14;;;;;;;17.80;8.98;;;14.80;99.90;;;;;;5114165;28;20039;-69
2021/06/30 12:58:04;;;;;;;15.55;8.05;;;14.80;99.90;;;;;;5114455;28;20040;-69